Time;durP1;ratioP1;P1;durP2;ratioP2;P2;SDS_P1;SDS_P2;PMS_P1;PMS_P2;Temp;Humidity;BMP_temperature;BMP_pressure;BME280_temperature;BME280_humidity;BME280_pressure;Samples;Min_cycle;Max_cycle;Signal;HPM_P1;HPM_P2
2023/05/22 00:00:43;;;;;;;10.90;8.73;;;;;;;20.49;49.05;97905.94;5001195;28;20042;-77
2023/05/22 00:03:09;;;;;;;11.63;9.07;;;;;;;20.38;49.24;97902.66;4989545;28;20026;-77
2023/05/22 00:05:37;;;;;;;10.95;9.48;;;;;;;20.35;49.18;97906.03;5007890;28;20044;-77
2023/05/22 00:08:03;;;;;;;9.90;8.90;;;;;;;20.45;48.90;97911.22;5003687;28;20036;-77
2023/05/22 00:10:29;;;;;;;10.90;8.50;;;;;;;20.39;49.34;97907.03;5001095;28;20061;-77
2023/05/22 00:12:55;;;;;;;9.80;8.48;;;;;;;20.39;49.15;97901.56;5005185;28;20124;-78
2023/05/22 00:15:20;;;;;;;12.68;8.98;;;;;;;20.34;49.10;97900.88;4996991;28;20593;-77
2023/05/22 00:17:46;;;;;;;9.68;8.68;;;;;;;20.30;49.36;97892.50;5005291;28;20030;-77
2023/05/22 00:20:11;;;;;;;11.15;9.00;;;;;;;20.26;49.27;97896.97;4996703;28;20038;-77
2023/05/22 00:22:37;;;;;;;13.52;8.80;;;;;;;20.30;49.04;97897.97;5005822;28;20086;-77
2023/05/22 00:25:04;;;;;;;11.27;8.85;;;;;;;20.33;49.33;97902.78;4991014;28;20042;-76
2023/05/22 00:27:30;;;;;;;10.75;8.88;;;;;;;20.14;49.92;97891.22;5003674;28;20052;-77
2023/05/22 00:29:57;;;;;;;9.90;8.20;;;;;;;20.08;50.34;97895.22;4984177;28;20084;-76
2023/05/22 00:32:23;;;;;;;10.40;9.02;;;;;;;20.13;49.67;97886.91;4988318;28;20026;-76
2023/05/22 00:34:49;;;;;;;9.98;8.77;;;;;;;20.16;49.86;97896.41;4963915;28;20046;-76
2023/05/22 00:37:14;;;;;;;10.32;8.77;;;;;;;20.23;49.04;97892.16;4971546;28;20026;-76
2023/05/22 00:39:40;;;;;;;13.38;8.90;;;;;;;20.11;49.75;97894.63;4974451;28;20038;-76
2023/05/22 00:42:05;;;;;;;11.27;9.07;;;;;;;20.14;49.92;97893.97;5004304;28;20026;-76
2023/05/22 00:44:31;;;;;;;11.35;8.40;;;;;;;20.08;49.94;97888.94;4981543;28;20030;-77
2023/05/22 00:46:56;;;;;;;11.07;8.60;;;;;;;20.23;49.26;97892.16;5002766;28;20025;-76
2023/05/22 00:49:21;;;;;;;10.02;8.88;;;;;;;20.20;49.85;97898.19;4997856;28;20114;-75
2023/05/22 00:51:47;;;;;;;14.07;8.40;;;;;;;19.89;50.72;97886.44;4985762;28;20438;-76
2023/05/22 00:54:13;;;;;;;11.48;9.07;;;;;;;19.87;51.17;97888.66;4983749;28;20038;-75
2023/05/22 00:56:40;;;;;;;10.13;8.23;;;;;;;19.98;50.92;97895.50;4972513;28;20018;-75
2023/05/22 00:59:05;;;;;;;11.13;8.77;;;;;;;19.94;50.66;97878.09;4990195;28;20128;-76
2023/05/22 01:01:32;;;;;;;9.30;8.38;;;;;;;20.00;50.17;97887.78;4961269;28;20080;-76
2023/05/22 01:04:02;;;;;;;10.98;8.45;;;;;;;19.75;51.09;97886.50;4990293;28;20045;-77
2023/05/22 01:06:30;;;;;;;10.18;8.60;;;;;;;19.92;50.63;97885.81;4986513;28;20618;-76
2023/05/22 01:08:56;;;;;;;11.40;8.95;;;;;;;19.86;50.97;97887.84;4983352;28;20022;-77
2023/05/22 01:11:40;;;;;;;10.13;8.63;;;;;;;19.79;51.15;97892.16;4987277;28;20733;-76
2023/05/22 01:14:13;;;;;;;9.27;8.30;;;;;;;19.87;51.43;97888.66;5006208;28;20110;-76
2023/05/22 01:16:49;;;;;;;12.07;9.13;;;;;;;19.75;51.19;97885.69;4977289;28;20053;-76
2023/05/22 01:19:39;;;;;;;9.85;8.85;;;;;;;19.82;51.25;97892.34;4984492;28;20042;-76
2023/05/22 01:22:29;;;;;;;10.77;8.35;;;;;;;19.74;51.37;97884.09;5008406;28;20046;-76
2023/05/22 01:25:28;;;;;;;10.88;9.05;;;;;;;19.87;51.10;97884.00;5008140;28;20044;-76
2023/05/22 01:28:05;;;;;;;9.45;8.45;;;;;;;19.84;51.34;97887.38;4975045;28;20129;-76
2023/05/22 01:30:47;;;;;;;9.48;8.48;;;;;;;19.80;51.20;97888.28;4983695;28;20407;-77
2023/05/22 01:33:17;;;;;;;11.25;8.63;;;;;;;19.60;51.78;97886.06;4996042;28;20049;-77
2023/05/22 01:35:45;;;;;;;10.93;8.85;;;;;;;19.83;51.52;97884.94;4986758;28;20026;-77
2023/05/22 01:38:11;;;;;;;10.80;8.23;;;;;;;19.76;51.69;97887.31;4995859;28;20034;-76
2023/05/22 01:40:36;;;;;;;11.63;9.05;;;;;;;19.77;51.71;97888.91;4998286;28;20029;-77
2023/05/22 01:43:02;;;;;;;9.57;8.27;;;;;;;19.68;52.34;97879.84;4997402;28;20037;-77
2023/05/22 01:45:30;;;;;;;10.77;9.18;;;;;;;19.53;52.05;97888.44;4995786;28;20393;-78
2023/05/22 01:47:57;;;;;;;11.13;8.93;;;;;;;19.70;51.83;97883.06;4995066;28;20041;-77
2023/05/22 01:50:23;;;;;;;9.95;8.20;;;;;;;19.61;52.77;97880.28;4995834;28;20026;-77
2023/05/22 01:53:12;;;;;;;10.05;8.63;;;;;;;19.62;52.38;97881.91;4998948;28;20433;-77
2023/05/22 01:55:44;;;;;;;9.90;8.60;;;;;;;19.47;52.86;97884.19;5000151;28;20034;-77
2023/05/22 01:58:18;;;;;;;10.85;8.55;;;;;;;19.49;52.71;97895.59;5004097;28;20041;-77
2023/05/22 02:00:44;;;;;;;9.68;8.68;;;;;;;19.33;53.04;97890.47;4991464;28;20065;-77
2023/05/22 02:03:16;;;;;;;11.13;8.65;;;;;;;19.42;52.82;97898.00;4970259;28;20439;-77
2023/05/22 02:05:42;;;;;;;10.00;8.48;;;;;;;19.44;53.09;97890.28;4989056;28;20030;-77
2023/05/22 02:08:09;;;;;;;14.50;8.77;;;;;;;19.12;53.94;97892.06;4969428;28;20022;-78
2023/05/22 02:10:37;;;;;;;11.23;8.73;;;;;;;19.21;53.86;97889.41;4992878;28;20561;-77
2023/05/22 02:13:03;;;;;;;10.13;8.73;;;;;;;18.94;54.91;97892.19;4995148;28;20037;-77
2023/05/22 02:15:29;;;;;;;11.73;9.50;;;;;;;18.83;55.50;97888.88;4991777;28;20096;-77
2023/05/22 02:17:55;;;;;;;10.00;9.00;;;;;;;18.84;55.28;97886.94;5001910;28;20022;-77
2023/05/22 02:20:21;;;;;;;12.90;9.45;;;;;;;18.53;56.41;97887.56;4982154;28;20407;-77
2023/05/22 02:22:46;;;;;;;12.05;9.18;;;;;;;18.49;56.92;97888.47;4985362;28;20026;-77
2023/05/22 02:25:13;;;;;;;13.20;9.48;;;;;;;18.44;56.72;97885.81;4972493;28;20388;-76
2023/05/22 02:27:41;;;;;;;10.38;9.38;;;;;;;18.31;57.83;97881.16;4985873;28;20028;-77
2023/05/22 02:30:07;;;;;;;14.38;9.77;;;;;;;18.05;59.13;97882.72;4998283;28;20037;-77
2023/05/22 02:32:32;;;;;;;10.18;9.00;;;;;;;17.95;59.15;97884.53;4995272;28;20028;-77
2023/05/22 02:34:58;;;;;;;12.15;9.40;;;;;;;17.86;60.03;97889.06;5008871;28;20034;-76
2023/05/22 02:37:23;;;;;;;11.48;9.80;;;;;;;17.68;60.30;97892.63;5004188;28;20400;-76
2023/05/22 02:39:49;;;;;;;10.50;9.30;;;;;;;17.50;60.81;97890.72;4973655;28;20149;-76
2023/05/22 02:42:15;;;;;;;10.90;9.77;;;;;;;17.51;61.09;97884.19;4986822;28;20065;-76
2023/05/22 02:44:41;;;;;;;10.50;9.40;;;;;;;17.61;60.37;97881.31;4994896;28;20073;-75
2023/05/22 02:47:06;;;;;;;12.80;10.23;;;;;;;17.76;60.32;97870.16;4956034;28;20061;-76
2023/05/22 02:49:33;;;;;;;11.95;9.43;;;;;;;17.57;60.87;97874.84;5002536;28;20030;-77
2023/05/22 02:51:58;;;;;;;12.35;9.93;;;;;;;17.56;60.87;97878.66;4972135;28;20088;-76
2023/05/22 02:54:23;;;;;;;10.77;9.55;;;;;;;17.32;62.00;97883.38;4985073;28;20535;-77
2023/05/22 02:56:49;;;;;;;12.48;10.25;;;;;;;17.07;62.88;97897.34;4972433;28;20023;-78
2023/05/22 02:59:15;;;;;;;14.15;10.00;;;;;;;17.09;62.65;97889.69;4969128;28;20117;-77
2023/05/22 03:01:40;;;;;;;14.55;9.98;;;;;;;17.09;62.39;97879.63;4950524;28;20032;-77
2023/05/22 03:04:06;;;;;;;12.63;10.60;;;;;;;16.99;63.47;97889.84;4979030;28;20456;-77
2023/05/22 03:06:31;;;;;;;13.05;10.27;;;;;;;16.97;63.48;97881.97;4981996;28;20477;-76
2023/05/22 03:08:57;;;;;;;10.98;9.73;;;;;;;16.81;63.10;97877.84;4969096;28;20031;-77
2023/05/22 03:11:23;;;;;;;12.05;9.88;;;;;;;16.87;63.36;97892.19;4966051;28;20040;-76
2023/05/22 03:13:48;;;;;;;11.35;9.85;;;;;;;16.83;63.98;97894.66;4978201;28;20527;-75
2023/05/22 03:16:14;;;;;;;12.00;10.70;;;;;;;16.54;64.29;97888.53;4965471;28;20073;-75
2023/05/22 03:18:43;;;;;;;11.68;9.88;;;;;;;16.28;65.93;97885.25;4953660;28;20030;-76
2023/05/22 03:21:08;;;;;;;11.98;10.52;;;;;;;16.49;65.16;97892.06;4950319;28;20061;-76
2023/05/22 03:23:34;;;;;;;12.45;10.48;;;;;;;16.59;64.66;97896.63;4962166;28;20038;-76
2023/05/22 03:25:59;;;;;;;11.80;10.60;;;;;;;16.47;64.75;97888.84;4991144;28;20034;-75
2023/05/22 03:28:29;;;;;;;12.00;10.10;;;;;;;16.24;65.42;97889.63;4975545;28;20050;-76
2023/05/22 03:30:55;;;;;;;12.20;10.55;;;;;;;16.35;64.89;97879.47;4980331;28;20105;-76
2023/05/22 03:33:24;;;;;;;12.20;10.40;;;;;;;16.86;63.62;97890.56;4958109;28;20499;-76
2023/05/22 03:35:50;;;;;;;11.85;9.80;;;;;;;16.43;65.16;97895.94;4991348;28;20038;-76
2023/05/22 03:38:21;;;;;;;13.07;11.05;;;;;;;16.62;64.55;97882.41;5146167;23;20039;-76
2023/05/22 03:40:47;;;;;;;11.32;10.10;;;;;;;16.19;65.93;97876.09;4992297;28;20129;-78
2023/05/22 03:43:13;;;;;;;12.32;9.88;;;;;;;16.23;66.14;97889.91;4978105;28;20121;-76
2023/05/22 03:45:38;;;;;;;11.82;10.63;;;;;;;16.17;65.91;97894.63;4963861;28;20398;-75
2023/05/22 03:48:04;;;;;;;14.57;10.38;;;;;;;16.50;65.09;97893.69;4977227;28;20022;-75
2023/05/22 03:50:29;;;;;;;12.40;10.15;;;;;;;16.62;64.60;97889.78;4983679;28;20041;-76
2023/05/22 03:52:55;;;;;;;11.32;10.13;;;;;;;16.31;65.34;97895.53;4992619;28;20058;-77
2023/05/22 03:55:20;;;;;;;14.07;10.60;;;;;;;16.31;66.09;97890.09;5001727;28;20042;-76
2023/05/22 03:57:45;;;;;;;13.23;10.95;;;;;;;16.29;66.19;97896.94;4965406;28;20034;-77
2023/05/22 04:00:12;;;;;;;12.38;10.85;;;;;;;16.26;66.33;97898.31;5000440;28;20034;-77
2023/05/22 04:02:43;;;;;;;13.95;10.93;;;;;;;16.35;66.03;97902.03;4989395;28;20476;-77
2023/05/22 04:05:09;;;;;;;13.68;10.43;;;;;;;16.55;65.89;97888.22;5002679;28;20488;-77
2023/05/22 04:07:35;;;;;;;13.57;10.50;;;;;;;16.41;66.51;97889.97;4992059;28;20026;-78
2023/05/22 04:10:02;;;;;;;12.60;10.80;;;;;;;16.58;65.92;97890.38;5010312;28;20061;-76
2023/05/22 04:12:27;;;;;;;12.98;10.90;;;;;;;16.55;65.87;97895.56;4993644;28;20025;-77
2023/05/22 04:14:52;;;;;;;11.93;10.73;;;;;;;16.50;66.08;97893.69;4986618;28;20407;-77
2023/05/22 04:17:18;;;;;;;13.13;11.63;;;;;;;16.28;67.03;97896.13;4987812;28;20448;-77
2023/05/22 04:19:43;;;;;;;13.07;10.88;;;;;;;16.45;66.65;97893.72;4996009;28;20034;-75
2023/05/22 04:22:08;;;;;;;14.77;11.68;;;;;;;16.32;66.95;97902.59;5000430;28;20495;-75
2023/05/22 04:24:38;;;;;;;11.90;10.60;;;;;;;16.69;66.38;97901.09;5002873;28;20073;-75
2023/05/22 04:27:04;;;;;;;12.63;10.90;;;;;;;16.90;65.15;97902.47;5006934;28;20034;-75
2023/05/22 04:29:30;;;;;;;13.73;10.90;;;;;;;17.16;64.96;97918.16;4973214;28;20076;-76
2023/05/22 04:31:55;;;;;;;12.77;11.02;;;;;;;17.02;65.33;97905.56;4996123;28;20031;-76
2023/05/22 04:34:20;;;;;;;13.93;11.30;;;;;;;17.24;65.41;97903.09;4995227;28;20449;-76
2023/05/22 04:36:46;;;;;;;13.15;11.20;;;;;;;17.10;65.71;97913.09;4990881;28;20080;-76
2023/05/22 04:39:15;;;;;;;12.55;10.40;;;;;;;17.58;62.30;97909.13;4988355;28;20061;-76
2023/05/22 04:41:40;;;;;;;11.68;10.05;;;;;;;17.73;62.29;97911.63;4975595;28;20480;-76
2023/05/22 04:44:06;;;;;;;13.98;10.40;;;;;;;17.84;63.32;97907.63;4973529;28;20030;-76
2023/05/22 04:46:33;;;;;;;12.82;10.60;;;;;;;18.08;63.47;97906.69;4983866;28;20113;-77
2023/05/22 04:49:00;;;;;;;13.55;10.48;;;;;;;18.00;62.50;97904.63;5001187;28;20040;-75
2023/05/22 04:51:31;;;;;;;13.18;10.25;;;;;;;18.39;60.73;97908.53;5010153;28;20046;-76
2023/05/22 04:53:57;;;;;;;13.18;10.32;;;;;;;18.53;60.24;97914.84;5007903;28;20030;-76
2023/05/22 04:56:23;;;;;;;12.60;10.20;;;;;;;18.16;62.21;97911.41;5006311;28;20023;-75
2023/05/22 04:58:49;;;;;;;11.70;10.50;;;;;;;18.14;63.53;97916.38;4993563;28;20484;-76
2023/05/22 05:01:15;;;;;;;11.82;10.43;;;;;;;18.36;63.78;97911.06;5012830;28;20025;-76
2023/05/22 05:03:44;;;;;;;14.95;10.43;;;;;;;18.84;61.91;97916.94;4982401;28;20042;-76
2023/05/22 05:06:11;;;;;;;14.50;10.65;;;;;;;19.08;60.46;97923.00;4959169;28;20663;-76
2023/05/22 05:08:37;;;;;;;13.48;10.63;;;;;;;19.13;60.86;97918.25;4975979;28;20038;-72
2023/05/22 05:11:02;;;;;;;12.07;10.00;;;;;;;19.25;60.08;97921.25;5003193;28;20061;-76
2023/05/22 05:13:28;;;;;;;11.85;9.77;;;;;;;19.24;57.61;97919.63;4988655;28;20507;-76
2023/05/22 05:15:53;;;;;;;12.35;9.95;;;;;;;19.46;57.52;97909.91;4987384;28;20029;-76
2023/05/22 05:18:19;;;;;;;12.27;9.52;;;;;;;19.52;57.36;97911.38;5004852;28;20088;-76
2023/05/22 05:20:44;;;;;;;11.68;9.20;;;;;;;19.56;56.57;97909.66;4972339;28;20026;-77
2023/05/22 05:23:11;;;;;;;15.30;9.23;;;;;;;19.76;56.31;97914.66;4967799;28;20062;-76
2023/05/22 05:25:37;;;;;;;14.70;10.52;;;;;;;19.76;57.62;97920.09;4973108;28;20523;-77
2023/05/22 05:28:10;;;;;;;11.80;9.10;;;;;;;19.75;57.66;97915.75;4989816;28;20060;-77
2023/05/22 05:30:39;;;;;;;12.52;10.27;;;;;;;19.60;57.40;97921.59;5012931;28;20034;-77
2023/05/22 05:33:26;;;;;;;14.32;10.02;;;;;;;19.59;58.23;97917.22;4985826;28;20037;-76
2023/05/22 05:36:02;;;;;;;11.70;9.60;;;;;;;19.78;57.24;97912.41;5012344;28;20030;-74
2023/05/22 05:38:29;;;;;;;13.43;9.80;;;;;;;19.95;57.25;97912.53;4998916;28;20137;-77
2023/05/22 05:40:55;;;;;;;9.88;8.73;;;;;;;20.00;56.13;97915.13;4999393;28;20532;-76
2023/05/22 05:43:22;;;;;;;13.40;9.80;;;;;;;20.19;57.34;97918.44;4986126;28;20409;-77
2023/05/22 05:45:49;;;;;;;10.90;9.65;;;;;;;20.23;57.32;97914.03;4982991;28;20499;-77
2023/05/22 05:48:15;;;;;;;11.15;9.95;;;;;;;20.59;55.94;97920.13;4966568;28;20084;-75
2023/05/22 05:50:43;;;;;;;10.65;9.38;;;;;;;20.33;57.54;97921.94;4963802;28;20051;-75
2023/05/22 05:53:09;;;;;;;11.68;9.77;;;;;;;20.76;55.90;97922.13;4968734;28;20030;-76
2023/05/22 05:55:34;;;;;;;11.70;9.60;;;;;;;20.58;54.93;97920.47;4999490;28;20077;-75
2023/05/22 05:58:00;;;;;;;11.95;9.25;;;;;;;20.37;53.25;97920.22;5008853;28;20034;-77
2023/05/22 06:00:41;;;;;;;11.77;9.10;;;;;;;20.30;54.57;97919.84;5027397;28;20044;-78
2023/05/22 06:03:06;;;;;;;12.18;9.88;;;;;;;20.68;54.47;97929.19;4995671;28;20125;-77
2023/05/22 06:05:49;;;;;;;11.52;9.80;;;;;;;20.62;52.71;97919.53;4998467;28;20025;-76
2023/05/22 06:08:21;;;;;;;11.35;9.82;;;;;;;20.86;52.92;97918.31;4982496;28;20049;-76
2023/05/22 06:10:47;;;;;;;12.20;10.07;;;;;;;20.74;52.66;97924.41;5003153;28;20034;-76
2023/05/22 06:13:24;;;;;;;10.10;9.07;;;;;;;20.80;54.45;97922.31;5000514;28;20557;-77
2023/05/22 06:15:50;;;;;;;10.35;9.25;;;;;;;20.86;53.81;97923.78;4998212;28;20065;-77
2023/05/22 06:18:16;;;;;;;10.70;9.23;;;;;;;20.92;53.86;97926.06;4967161;28;20480;-77
2023/05/22 06:20:42;;;;;;;11.95;9.88;;;;;;;21.31;52.31;97917.78;5005040;28;20041;-77
2023/05/22 06:23:07;;;;;;;10.27;9.18;;;;;;;21.42;51.34;97915.56;5003853;28;20475;-77
2023/05/22 06:25:33;;;;;;;11.45;9.82;;;;;;;21.13;52.22;97921.63;4984136;28;20037;-77
2023/05/22 06:27:59;;;;;;;13.57;9.82;;;;;;;21.24;52.57;97922.94;4983493;28;20045;-77
2023/05/22 06:30:25;;;;;;;10.77;9.50;;;;;;;21.22;53.66;97919.72;4985458;28;20027;-77
2023/05/22 06:32:51;;;;;;;11.90;9.70;;;;;;;21.54;53.76;97915.69;4979538;28;20495;-77
2023/05/22 06:35:17;;;;;;;17.23;10.18;;;;;;;21.39;54.14;97924.41;5006146;28;20053;-77
2023/05/22 06:37:42;;;;;;;10.80;9.73;;;;;;;21.34;53.49;97913.59;4999466;28;20084;-77
2023/05/22 06:40:09;;;;;;;11.25;10.10;;;;;;;21.35;52.53;97917.97;4986934;28;20034;-77
2023/05/22 06:42:43;;;;;;;11.95;9.73;;;;;;;21.28;54.13;97912.16;5004416;28;20033;-77
2023/05/22 06:45:26;;;;;;;10.60;9.48;;;;;;;21.29;54.10;97911.00;4997471;28;20498;-77
2023/05/22 06:48:21;;;;;;;10.80;9.70;;;;;;;21.65;54.02;97917.00;4978887;28;20045;-77
2023/05/22 06:51:13;;;;;;;11.63;9.98;;;;;;;21.30;54.08;97915.38;4965280;28;20756;-77
2023/05/22 06:53:40;;;;;;;10.95;9.48;;;;;;;21.68;54.11;97915.56;5010803;28;20084;-77
2023/05/22 06:56:11;;;;;;;11.65;9.90;;;;;;;21.83;54.34;97918.63;4977258;28;20019;-77
2023/05/22 06:58:55;;;;;;;11.35;10.23;;;;;;;21.36;55.11;97908.59;5005662;28;20410;-77
2023/05/22 07:01:28;;;;;;;12.13;9.95;;;;;;;21.75;54.33;97904.91;4995473;28;20034;-77
2023/05/22 07:04:07;;;;;;;13.25;10.63;;;;;;;21.56;55.24;97918.94;4983014;28;20419;-77
2023/05/22 07:06:40;;;;;;;12.88;10.55;;;;;;;21.81;52.95;97915.38;4984694;28;20034;-77
2023/05/22 07:09:07;;;;;;;12.25;9.80;;;;;;;21.86;53.99;97918.00;4975043;28;20038;-77
2023/05/22 07:11:34;;;;;;;12.88;9.80;;;;;;;21.84;53.07;97920.25;4975377;28;20417;-77
2023/05/22 07:14:03;;;;;;;13.88;9.73;;;;;;;22.24;51.99;97925.53;4987910;28;20035;-77
2023/05/22 07:16:29;;;;;;;13.40;9.82;;;;;;;22.36;52.60;97915.47;4994369;28;20044;-77
2023/05/22 07:18:55;;;;;;;11.05;9.38;;;;;;;22.56;51.09;97928.50;4981289;28;20108;-77
2023/05/22 07:21:23;;;;;;;12.32;10.30;;;;;;;22.49;50.28;97924.63;4980145;28;20110;-77
2023/05/22 07:23:51;;;;;;;13.32;9.77;;;;;;;22.65;50.98;97923.00;4988296;28;20034;-76
2023/05/22 07:26:17;;;;;;;10.90;9.70;;;;;;;22.58;49.78;97917.19;4976677;28;20022;-77
2023/05/22 07:28:49;;;;;;;11.27;9.02;;;;;;;22.58;51.84;97925.41;4989734;28;20061;-76
2023/05/22 07:31:15;;;;;;;11.02;9.77;;;;;;;22.33;50.95;97924.38;4996330;28;20041;-76
2023/05/22 07:33:40;;;;;;;12.30;11.00;;;;;;;22.01;52.45;97913.94;4988499;28;20026;-76
2023/05/22 07:36:06;;;;;;;10.13;9.13;;;;;;;22.43;54.62;97914.97;4986724;28;20025;-77
2023/05/22 07:38:31;;;;;;;11.10;9.95;;;;;;;22.97;50.31;97918.78;4998688;28;20037;-77
2023/05/22 07:41:03;;;;;;;13.95;10.70;;;;;;;23.02;50.41;97916.66;4994151;28;20045;-77
2023/05/22 07:43:29;;;;;;;10.18;9.10;;;;;;;22.85;50.12;97922.25;4955609;28;20034;-77
2023/05/22 07:45:56;;;;;;;11.35;9.65;;;;;;;23.00;50.64;97918.94;4983542;28;20021;-77
2023/05/22 07:48:25;;;;;;;10.95;9.85;;;;;;;23.28;49.22;97920.06;5007153;28;20042;-77
2023/05/22 07:50:50;;;;;;;12.57;9.50;;;;;;;23.36;49.29;97915.69;4975765;28;20019;-78
2023/05/22 07:53:16;;;;;;;10.65;9.55;;;;;;;23.38;48.66;97907.09;4978405;28;20034;-78
2023/05/22 07:55:43;;;;;;;15.27;10.20;;;;;;;23.60;49.57;97920.50;4994531;28;20049;-77
2023/05/22 07:58:09;;;;;;;10.90;9.80;;;;;;;23.34;49.22;97916.00;4994449;28;20116;-77
2023/05/22 08:00:36;;;;;;;11.20;9.48;;;;;;;23.62;48.68;97921.00;4991665;28;20050;-77
2023/05/22 08:03:02;;;;;;;12.05;9.57;;;;;;;23.67;46.70;97916.09;4997532;28;20557;-77
2023/05/22 08:05:27;;;;;;;9.93;8.93;;;;;;;23.83;45.82;97916.25;5000106;28;20022;-77
2023/05/22 08:10:22;;;;;;;10.38;9.38;;;;;;;23.89;49.46;97917.69;4993916;28;20061;-78
2023/05/22 08:12:47;;;;;;;12.50;9.85;;;;;;;23.86;48.16;97912.84;5003155;28;20050;-78
2023/05/22 08:15:13;;;;;;;12.82;9.30;;;;;;;23.63;47.22;97917.09;4971409;28;20069;-77
2023/05/22 08:17:38;;;;;;;9.65;8.57;;;;;;;23.41;47.77;97922.94;4966442;28;20225;-78
2023/05/22 08:20:04;;;;;;;10.75;9.50;;;;;;;23.46;47.16;97919.97;5000775;28;20030;-78
2023/05/22 08:22:30;;;;;;;10.07;9.07;;;;;;;23.72;48.11;97915.88;5014874;28;20031;-77
2023/05/22 08:24:55;;;;;;;10.63;9.32;;;;;;;23.62;47.12;97918.25;5006985;28;20034;-77
2023/05/22 08:27:21;;;;;;;13.68;10.32;;;;;;;23.68;49.87;97923.22;5001317;28;20514;-77
2023/05/22 08:29:46;;;;;;;12.63;9.30;;;;;;;23.15;45.85;97923.84;4999633;28;20476;-78
2023/05/22 08:32:11;;;;;;;10.95;9.68;;;;;;;23.74;46.64;97915.53;4993764;28;20034;-77
2023/05/22 08:34:38;;;;;;;11.43;9.65;;;;;;;23.29;46.25;97920.88;5006559;28;20483;-77
2023/05/22 08:37:04;;;;;;;10.50;9.50;;;;;;;23.96;46.62;97913.25;5002360;28;20025;-77
2023/05/22 08:39:30;;;;;;;12.02;9.82;;;;;;;23.97;47.05;97914.03;4999102;28;20081;-78
2023/05/22 08:41:55;;;;;;;10.27;9.30;;;;;;;24.16;47.27;97911.63;4977556;28;20034;-77
2023/05/22 08:44:20;;;;;;;11.57;10.10;;;;;;;24.34;45.54;97913.03;4993522;28;20599;-77
2023/05/22 08:46:48;;;;;;;12.00;9.43;;;;;;;24.28;45.92;97919.91;5001987;28;20044;-77
2023/05/22 08:49:15;;;;;;;10.02;9.02;;;;;;;23.98;47.06;97910.16;5000446;28;20030;-76
2023/05/22 08:51:43;;;;;;;10.60;9.13;;;;;;;23.96;45.50;97901.44;4989078;28;20042;-76
2023/05/22 08:54:09;;;;;;;10.40;9.35;;;;;;;23.78;45.23;97900.00;4990251;28;20109;-76
2023/05/22 08:56:35;;;;;;;11.23;9.45;;;;;;;23.87;45.66;97911.72;5001248;28;20452;-76
2023/05/22 08:59:01;;;;;;;10.65;9.57;;;;;;;24.08;45.38;97896.00;4983477;28;20030;-76
2023/05/22 09:01:30;;;;;;;11.15;9.63;;;;;;;23.90;45.22;97892.59;5012882;28;20026;-76
2023/05/22 09:04:02;;;;;;;10.70;9.60;;;;;;;23.86;43.73;97896.34;4967200;28;20030;-76
2023/05/22 09:06:28;;;;;;;10.60;8.93;;;;;;;24.10;43.45;97901.16;4986940;28;20081;-76
2023/05/22 09:09:00;;;;;;;13.30;9.40;;;;;;;24.51;45.79;97895.53;5006308;28;20038;-76
2023/05/22 09:11:25;;;;;;;13.63;10.02;;;;;;;24.42;46.71;97892.88;5004564;28;20121;-76
2023/05/22 09:13:51;;;;;;;10.70;9.60;;;;;;;25.07;43.18;97891.09;4999318;28;20026;-76
2023/05/22 09:16:17;;;;;;;9.95;8.68;;;;;;;24.47;44.03;97887.16;5002914;28;20496;-76
2023/05/22 09:18:42;;;;;;;12.02;9.20;;;;;;;24.30;43.13;97884.59;4995796;28;20049;-76
2023/05/22 09:21:10;;;;;;;10.30;9.25;;;;;;;24.52;43.30;97875.91;4986776;28;20134;-76
2023/05/22 09:23:35;;;;;;;11.63;9.40;;;;;;;24.58;45.30;97870.97;5005968;28;20388;-76
2023/05/22 09:26:02;;;;;;;10.88;9.68;;;;;;;25.01;42.95;97876.75;5002448;28;20036;-76
2023/05/22 09:28:35;;;;;;;10.88;9.38;;;;;;;25.42;41.84;97878.41;4998998;28;20034;-76
2023/05/22 09:31:01;;;;;;;11.10;9.45;;;;;;;25.86;41.73;97871.81;4985479;28;20031;-76
2023/05/22 09:33:26;;;;;;;11.05;9.32;;;;;;;26.09;43.18;97872.09;4989213;28;20391;-76
2023/05/22 09:35:52;;;;;;;10.40;9.27;;;;;;;26.25;42.61;97870.19;5003177;28;20037;-76
2023/05/22 09:38:17;;;;;;;10.40;8.93;;;;;;;25.88;41.21;97871.50;4982644;28;20033;-75
2023/05/22 09:40:43;;;;;;;11.57;9.60;;;;;;;25.77;41.55;97876.69;5011901;28;20034;-76
2023/05/22 09:43:16;;;;;;;11.63;9.52;;;;;;;25.58;41.21;97873.78;4995571;28;20588;-76
2023/05/22 09:45:41;;;;;;;10.82;9.23;;;;;;;26.44;40.61;97869.50;4988176;28;20044;-76
2023/05/22 09:48:08;;;;;;;9.68;8.65;;;;;;;26.56;40.23;97855.56;4998679;28;20041;-76
2023/05/22 09:50:35;;;;;;;10.52;9.43;;;;;;;26.43;42.39;97865.09;4999683;28;20030;-76
2023/05/22 09:53:02;;;;;;;10.30;8.88;;;;;;;25.72;37.91;97863.16;4988969;28;20030;-76
2023/05/22 09:55:28;;;;;;;10.95;8.88;;;;;;;26.03;38.00;97866.00;4988866;28;20125;-76
2023/05/22 09:57:55;;;;;;;10.25;9.25;;;;;;;26.15;36.75;97869.88;4998727;28;20391;-76
2023/05/22 10:00:22;;;;;;;9.77;8.77;;;;;;;26.38;38.79;97868.13;5012003;28;20038;-76
2023/05/22 10:03:02;;;;;;;9.38;8.45;;;;;;;26.02;36.87;97867.16;5002072;28;20026;-76
2023/05/22 10:05:30;;;;;;;9.82;8.18;;;;;;;26.05;36.10;97858.19;4993002;28;20479;-76
2023/05/22 10:08:00;;;;;;;10.45;8.95;;;;;;;25.59;41.31;97863.56;4975797;28;20030;-76
2023/05/22 10:10:26;;;;;;;12.82;9.20;;;;;;;25.43;40.05;97860.72;4992102;28;20037;-76
2023/05/22 10:12:55;;;;;;;12.43;10.00;;;;;;;25.73;39.04;97856.50;5002723;28;20429;-76
2023/05/22 10:15:21;;;;;;;10.30;8.30;;;;;;;25.82;40.25;97857.13;4982557;28;20380;-76
2023/05/22 10:17:47;;;;;;;9.88;8.75;;;;;;;26.21;40.18;97846.41;4984986;28;20049;-76
2023/05/22 10:20:13;;;;;;;10.20;9.20;;;;;;;26.16;37.97;97847.47;4991771;28;20034;-76
2023/05/22 10:22:39;;;;;;;9.38;8.20;;;;;;;26.53;39.39;97837.78;4975579;28;20049;-76
2023/05/22 10:25:05;;;;;;;8.82;7.82;;;;;;;26.31;38.62;97845.84;4988621;28;20492;-75
2023/05/22 10:27:31;;;;;;;9.50;8.55;;;;;;;26.23;37.70;97841.31;4985675;28;20025;-77
2023/05/22 10:30:02;;;;;;;10.70;8.25;;;;;;;27.11;38.95;97838.78;4998344;28;20038;-76
2023/05/22 10:33:06;;;;;;;10.90;8.70;;;;;;;27.09;38.37;97838.34;4984613;28;20125;-77
2023/05/22 10:35:39;;;;;;;9.35;8.35;;;;;;;27.00;39.54;97829.41;5004214;28;20050;-77
2023/05/22 10:38:13;;;;;;;10.05;8.48;;;;;;;26.97;38.03;97841.22;4994237;28;20117;-76
2023/05/22 10:40:40;;;;;;;10.68;8.10;;;;;;;27.56;34.47;97834.63;5015851;28;20081;-76
2023/05/22 10:43:05;;;;;;;12.50;9.65;;;;;;;27.21;33.83;97834.66;5004652;28;20053;-77
2023/05/22 10:45:31;;;;;;;12.25;9.48;;;;;;;26.79;37.22;97828.94;4985946;28;20038;-76
2023/05/22 10:48:04;;;;;;;9.98;8.18;;;;;;;26.95;39.31;97832.50;4965739;28;20120;-76
2023/05/22 10:50:30;;;;;;;10.90;7.95;;;;;;;27.47;36.10;97836.81;4999918;28;20037;-76
2023/05/22 10:53:27;;;;;;;9.77;8.05;;;;;;;27.40;36.99;97838.25;5004377;28;20030;-76
2023/05/22 10:55:57;;;;;;;10.43;8.45;;;;;;;27.76;35.42;97827.91;4988282;28;20046;-76
2023/05/22 10:58:36;;;;;;;8.98;8.07;;;;;;;27.82;35.24;97820.94;4984341;28;20091;-76
2023/05/22 11:01:15;;;;;;;12.23;9.63;;;;;;;28.66;32.81;97811.41;4981944;28;20069;-76
2023/05/22 11:03:57;;;;;;;11.38;8.35;;;;;;;28.38;34.02;97819.22;4981433;28;20038;-76
2023/05/22 11:06:40;;;;;;;9.02;7.82;;;;;;;28.55;33.91;97815.94;4985699;28;20027;-76
2023/05/22 11:09:19;;;;;;;10.75;7.78;;;;;;;28.15;32.81;97817.59;5006957;28;20195;-76
2023/05/22 11:11:45;;;;;;;10.65;8.57;;;;;;;28.07;32.07;97822.22;5003798;28;20053;-76
2023/05/22 11:14:15;;;;;;;9.88;8.10;;;;;;;28.00;33.42;97822.09;4981001;28;20357;-76
2023/05/22 11:16:40;;;;;;;9.00;8.20;;;;;;;28.65;32.75;97807.03;4981704;28;20113;-76
2023/05/22 11:19:07;;;;;;;8.52;7.72;;;;;;;29.10;32.00;97810.88;4971007;28;20126;-76
2023/05/22 11:21:51;;;;;;;8.70;7.78;;;;;;;28.92;32.35;97807.03;5006682;28;20049;-76
2023/05/22 11:24:16;;;;;;;8.63;7.70;;;;;;;28.57;34.95;97808.06;4987470;28;20034;-76
2023/05/22 11:26:42;;;;;;;9.50;8.18;;;;;;;28.90;32.04;97809.38;4985117;28;20431;-76
2023/05/22 11:29:07;;;;;;;9.32;7.75;;;;;;;29.18;32.33;97809.81;5005703;28;20121;-76
2023/05/22 11:31:36;;;;;;;8.57;7.65;;;;;;;29.45;33.09;97803.06;4997048;28;20632;-76